Time;durP1;ratioP1;P1;durP2;ratioP2;P2;SDS_P1;SDS_P2;PMS_P1;PMS_P2;Temp;Humidity;BMP_temperature;BMP_pressure;BME280_temperature;BME280_humidity;BME280_pressure;Samples;Min_cycle;Max_cycle;Signal;HPM_P1;HPM_P2
2023/05/08 00:02:23;;;;;;;22.95;15.10;;;;;;;14.75;100.00;101998.56;5082648;28;20550;-82
2023/05/08 00:04:48;;;;;;;23.40;15.90;;;;;;;14.56;100.00;101974.94;5079756;28;20154;-82
2023/05/08 00:07:14;;;;;;;24.90;16.05;;;;;;;14.40;100.00;101983.53;5068476;28;20793;-82
2023/05/08 00:09:39;;;;;;;23.38;14.88;;;;;;;14.50;100.00;101973.59;5082237;28;20032;-82
2023/05/08 00:12:05;;;;;;;21.00;15.57;;;;;;;14.53;100.00;101981.31;5085960;28;20107;-82
2023/05/08 00:14:30;;;;;;;21.08;14.73;;;;;;;14.57;100.00;101975.78;5071145;28;20659;-93
2023/05/08 00:16:55;;;;;;;23.15;14.48;;;;;;;14.50;100.00;101969.97;5085653;28;20666;-92
2023/05/08 00:19:21;;;;;;;23.33;15.10;;;;;;;14.59;100.00;101984.66;5093058;28;20024;-91
2023/05/08 00:21:46;;;;;;;25.50;16.70;;;;;;;14.55;100.00;101983.75;5090670;28;20032;-94
2023/05/08 00:24:11;;;;;;;24.88;15.95;;;;;;;14.41;100.00;101976.69;5093507;28;20032;-92
2023/05/08 00:26:37;;;;;;;21.63;14.80;;;;;;;14.51;100.00;101980.06;5091863;28;20020;-93
2023/05/08 00:29:02;;;;;;;21.80;15.05;;;;;;;14.53;100.00;101984.13;5090772;28;20170;-93
2023/05/08 00:31:27;;;;;;;24.00;16.35;;;;;;;14.50;100.00;101987.69;5085343;28;20424;-91
2023/05/08 00:33:53;;;;;;;23.08;14.75;;;;;;;14.52;100.00;101979.69;5092776;28;20077;-93
2023/05/08 00:36:18;;;;;;;23.35;15.93;;;;;;;14.38;100.00;101954.94;5088069;28;20032;-92
2023/05/08 00:38:44;;;;;;;22.13;15.55;;;;;;;14.41;100.00;101973.06;5088234;28;20092;-92
2023/05/08 00:41:09;;;;;;;26.08;15.50;;;;;;;14.42;100.00;101972.69;5090341;28;20027;-92
2023/05/08 00:43:36;;;;;;;21.48;13.52;;;;;;;14.42;100.00;101975.50;5083980;28;20026;-91
2023/05/08 00:46:02;;;;;;;23.13;14.90;;;;;;;14.24;100.00;101980.03;5085293;28;20138;-93
2023/05/08 00:48:30;;;;;;;23.95;16.35;;;;;;;14.17;100.00;101974.28;5093248;28;20024;-92
2023/05/08 00:50:57;;;;;;;24.80;15.10;;;;;;;14.16;100.00;101967.03;5088585;28;20067;-92
2023/05/08 00:53:25;;;;;;;20.95;14.70;;;;;;;14.24;100.00;101982.84;5086004;28;20056;-92
2023/05/08 00:55:51;;;;;;;21.25;14.23;;;;;;;14.10;100.00;101976.97;5089597;28;20032;-92
2023/05/08 00:58:19;;;;;;;27.30;15.80;;;;;;;14.25;100.00;101987.28;5088391;28;20035;-92
2023/05/08 01:00:45;;;;;;;21.70;13.70;;;;;;;14.25;100.00;101978.81;5080471;28;20035;-92
2023/05/08 01:03:12;;;;;;;25.15;15.38;;;;;;;14.16;100.00;101972.66;5092843;28;20035;-93
2023/05/08 01:05:37;;;;;;;23.17;14.85;;;;;;;14.15;100.00;101979.47;5086681;28;20172;-92
2023/05/08 01:08:03;;;;;;;22.30;14.77;;;;;;;14.17;100.00;101975.09;5089147;28;20054;-92
2023/05/08 01:10:43;;;;;;;25.25;15.05;;;;;;;14.18;100.00;101981.53;5086294;28;20071;-92
2023/05/08 01:13:46;;;;;;;23.90;15.07;;;;;;;14.15;100.00;101979.47;5085268;28;20025;-92
2023/05/08 01:16:21;;;;;;;23.08;14.55;;;;;;;14.15;100.00;101971.03;5082799;28;20547;-92
2023/05/08 01:19:15;;;;;;;27.42;16.70;;;;;;;14.01;100.00;101983.66;5093396;28;20051;-93
2023/05/08 01:21:59;;;;;;;24.55;14.80;;;;;;;13.94;100.00;101977.91;5088831;28;20377;-94
2023/05/08 01:24:47;;;;;;;22.95;14.25;;;;;;;14.06;100.00;101979.72;5082942;28;20078;-94
2023/05/08 01:27:43;;;;;;;22.42;14.77;;;;;;;14.07;100.00;101969.28;5087432;28;20032;-93
2023/05/08 01:30:23;;;;;;;25.50;14.52;;;;;;;13.91;100.00;101981.47;5084213;28;20032;-93
2023/05/08 01:32:56;;;;;;;21.45;13.85;;;;;;;14.01;100.00;101965.97;5081020;28;20028;-94
2023/05/08 01:35:49;;;;;;;21.70;14.27;;;;;;;13.99;100.00;101971.97;5088637;28;20123;-93
2023/05/08 01:38:29;;;;;;;21.88;14.85;;;;;;;13.89;100.00;101964.13;5084865;28;20078;-94
2023/05/08 01:41:09;;;;;;;24.15;15.00;;;;;;;13.91;100.00;101966.56;5081327;28;20119;-94
2023/05/08 01:43:40;;;;;;;22.42;14.57;;;;;;;13.81;100.00;101971.66;5084507;28;20027;-92
2023/05/08 01:46:24;;;;;;;23.83;15.13;;;;;;;13.87;100.00;101976.97;5083803;28;20027;-94
2023/05/08 01:49:10;;;;;;;26.60;15.65;;;;;;;13.85;100.00;101974.53;5084897;28;20024;-93
2023/05/08 01:51:47;;;;;;;23.05;15.15;;;;;;;13.76;100.00;101988.81;5098494;27;20510;-94
2023/05/08 01:54:23;;;;;;;22.35;14.18;;;;;;;13.63;100.00;101985.38;5089075;28;20024;-93
2023/05/08 01:56:51;;;;;;;24.35;14.85;;;;;;;13.59;100.00;101984.47;5104736;27;20032;-93
2023/05/08 01:59:20;;;;;;;22.33;14.32;;;;;;;13.57;100.00;101975.59;5082964;28;20028;-93
2023/05/08 02:01:48;;;;;;;26.25;15.18;;;;;;;13.55;100.00;101988.41;5091195;28;20402;-93
2023/05/08 02:04:15;;;;;;;24.65;15.25;;;;;;;13.56;100.00;101979.59;5079981;28;20024;-92
2023/05/08 02:06:41;;;;;;;27.40;15.82;;;;;;;13.57;100.00;101986.84;5088685;28;20095;-93
2023/05/08 02:09:08;;;;;;;23.38;15.52;;;;;;;13.55;100.00;101980.78;5085575;28;20032;-93
2023/05/08 02:11:36;;;;;;;24.80;15.60;;;;;;;13.42;100.00;101990.56;5082811;28;20107;-92
2023/05/08 02:14:03;;;;;;;25.63;15.35;;;;;;;13.41;100.00;101970.06;5080803;28;20435;-83
2023/05/08 02:16:30;;;;;;;24.98;14.93;;;;;;;13.53;100.00;101985.16;5075830;28;20664;-83
2023/05/08 02:19:00;;;;;;;26.88;14.98;;;;;;;13.42;100.00;101982.13;5094847;28;20566;-83
2023/05/08 02:21:27;;;;;;;24.73;14.38;;;;;;;13.46;100.00;101980.22;5080998;28;20685;-83
2023/05/08 02:23:55;;;;;;;26.65;14.80;;;;;;;13.51;100.00;101990.34;5078138;28;20521;-83
2023/05/08 02:26:22;;;;;;;24.17;14.93;;;;;;;13.48;100.00;101999.53;5071105;28;20085;-83
2023/05/08 02:28:51;;;;;;;26.10;15.27;;;;;;;13.33;100.00;101993.59;5080413;28;20028;-83
2023/05/08 02:31:19;;;;;;;24.20;15.10;;;;;;;13.35;100.00;101994.06;5079111;28;20027;-83
2023/05/08 02:33:47;;;;;;;26.80;15.40;;;;;;;13.27;100.00;101983.00;5073157;28;20851;-83
2023/05/08 02:36:16;;;;;;;24.30;14.95;;;;;;;13.31;100.00;101978.28;5073123;28;20081;-83
2023/05/08 02:38:45;;;;;;;24.33;14.88;;;;;;;13.26;100.00;101968.13;5084912;28;21883;-83
2023/05/08 02:41:12;;;;;;;26.00;16.00;;;;;;;13.29;100.00;101989.09;5076436;28;20040;-83
2023/05/08 02:43:38;;;;;;;22.77;15.38;;;;;;;13.25;100.00;101986.16;5077109;28;20024;-83
2023/05/08 02:46:15;;;;;;;24.85;14.98;;;;;;;13.26;100.00;101998.22;5078727;28;20141;-82
2023/05/08 02:48:55;;;;;;;22.25;14.07;;;;;;;13.29;100.00;102003.97;5077488;28;20146;-83
2023/05/08 02:51:30;;;;;;;26.58;16.42;;;;;;;13.30;100.00;101999.16;5074039;28;22126;-83
2023/05/08 02:54:07;;;;;;;21.65;14.55;;;;;;;13.23;100.00;101994.97;5077457;28;20081;-83
2023/05/08 02:56:42;;;;;;;25.67;16.08;;;;;;;13.13;100.00;101987.13;5076617;28;20086;-83
2023/05/08 02:59:17;;;;;;;25.00;15.00;;;;;;;13.12;100.00;101995.94;5078196;28;21036;-83
2023/05/08 03:01:49;;;;;;;24.15;15.35;;;;;;;13.16;100.00;101989.19;5073003;28;20056;-83
2023/05/08 03:04:24;;;;;;;24.43;14.60;;;;;;;13.05;100.00;101990.97;5082947;28;20032;-83
2023/05/08 03:06:52;;;;;;;25.58;16.00;;;;;;;13.01;100.00;101988.06;5080971;28;20030;-83
2023/05/08 03:09:20;;;;;;;25.85;16.60;;;;;;;12.96;100.00;101993.16;5078938;28;20385;-83
2023/05/08 03:11:49;;;;;;;25.52;14.75;;;;;;;12.98;100.00;101983.19;5072875;28;20136;-84
2023/05/08 03:14:21;;;;;;;26.92;15.38;;;;;;;12.94;100.00;101984.28;5080646;28;20028;-84
2023/05/08 03:16:49;;;;;;;23.08;14.98;;;;;;;13.00;100.00;101994.88;5077285;28;22046;-84
2023/05/08 03:19:34;;;;;;;25.45;15.13;;;;;;;12.95;100.00;101983.94;5082022;28;20042;-84
2023/05/08 03:22:03;;;;;;;25.20;16.00;;;;;;;12.83;100.00;101986.84;5081743;28;20441;-83
2023/05/08 03:24:30;;;;;;;25.67;15.55;;;;;;;13.06;100.00;102009.44;5078335;28;20021;-83
2023/05/08 03:26:58;;;;;;;24.17;14.98;;;;;;;12.98;100.00;102004.84;5080945;28;20032;-83
2023/05/08 03:29:24;;;;;;;25.17;16.25;;;;;;;12.90;100.00;102003.06;5083904;28;20047;-83
2023/05/08 03:31:51;;;;;;;25.65;14.75;;;;;;;12.79;100.00;101989.56;5083261;28;20036;-83
2023/05/08 03:34:18;;;;;;;25.65;14.75;;;;;;;12.91;100.00;101993.47;5083894;28;20140;-83
2023/05/08 03:36:44;;;;;;;25.83;15.57;;;;;;;12.88;100.00;101999.81;5080873;28;20051;-83
2023/05/08 03:39:10;;;;;;;24.23;15.52;;;;;;;12.84;100.00;102001.72;5082162;28;20420;-83
2023/05/08 03:41:35;;;;;;;26.13;16.55;;;;;;;12.70;100.00;101980.53;5078713;28;20032;-83
2023/05/08 03:44:02;;;;;;;23.92;13.80;;;;;;;12.71;100.00;101979.38;5081608;28;20032;-84
2023/05/08 03:46:30;;;;;;;22.08;14.73;;;;;;;12.78;100.00;101990.78;5084917;28;20027;-83
2023/05/08 03:48:59;;;;;;;27.30;16.23;;;;;;;12.74;100.00;101981.44;5077481;28;20035;-83
2023/05/08 03:51:26;;;;;;;23.90;13.85;;;;;;;12.80;100.00;101991.22;5076151;28;20119;-83
2023/05/08 03:53:52;;;;;;;25.15;15.40;;;;;;;12.59;100.00;101982.28;5080877;28;20511;-83
2023/05/08 03:56:17;;;;;;;25.95;15.60;;;;;;;12.62;100.00;101984.38;5075104;28;20055;-83
2023/05/08 03:59:15;;;;;;;27.98;16.27;;;;;;;12.59;100.00;101985.09;5082973;28;20028;-83
2023/05/08 04:02:20;;;;;;;29.27;15.85;;;;;;;12.69;100.00;101987.34;5072642;28;20020;-83
2023/05/08 04:04:49;;;;;;;26.52;15.02;;;;;;;12.68;100.00;101979.28;5077476;28;20051;-84
2023/05/08 04:07:26;;;;;;;28.10;15.98;;;;;;;12.55;100.00;101985.00;5075952;28;20569;-83
2023/05/08 04:10:10;;;;;;;26.15;16.20;;;;;;;12.51;100.00;101978.50;5077724;28;21936;-83
2023/05/08 04:12:44;;;;;;;31.35;16.77;;;;;;;12.52;100.00;101987.72;5077419;28;20028;-84
2023/05/08 04:15:17;;;;;;;29.90;17.55;;;;;;;12.33;100.00;101980.03;5062796;28;20120;-83
2023/05/08 04:17:48;;;;;;;25.58;15.75;;;;;;;12.43;100.00;101984.31;5068142;28;20024;-83
2023/05/08 04:20:18;;;;;;;31.67;16.88;;;;;;;12.55;100.00;101990.63;5073310;28;20078;-84
2023/05/08 04:22:45;;;;;;;24.85;15.00;;;;;;;12.50;100.00;101978.84;5080001;28;20090;-84
2023/05/08 04:25:12;;;;;;;26.40;15.93;;;;;;;12.38;100.00;101966.56;5079286;28;20028;-84
2023/05/08 04:27:38;;;;;;;31.35;16.48;;;;;;;12.37;100.00;101976.13;5080082;28;20070;-83
2023/05/08 04:30:04;;;;;;;27.95;16.27;;;;;;;12.42;100.00;101972.28;5081610;28;20028;-84
2023/05/08 04:32:30;;;;;;;27.17;16.00;;;;;;;12.43;100.00;101976.69;5079299;28;20043;-83
2023/05/08 04:34:57;;;;;;;27.15;16.85;;;;;;;12.43;100.00;101973.06;5079789;28;20078;-83
2023/05/08 04:37:25;;;;;;;29.85;16.15;;;;;;;12.28;100.00;101963.50;5089821;28;20043;-83
2023/05/08 04:39:51;;;;;;;27.08;17.20;;;;;;;12.38;100.00;101983.41;5081618;28;20587;-84
2023/05/08 04:42:17;;;;;;;28.67;17.92;;;;;;;12.20;100.00;101982.94;5107812;28;20036;-83
2023/05/08 04:44:42;;;;;;;28.50;16.23;;;;;;;12.36;100.00;101985.75;5085765;28;20059;-83
2023/05/08 04:47:07;;;;;;;27.10;15.57;;;;;;;12.28;100.00;101983.94;5092006;28;20470;-84
2023/05/08 04:49:33;;;;;;;26.50;16.83;;;;;;;12.39;100.00;101985.00;5080652;28;20048;-84
2023/05/08 04:51:58;;;;;;;29.40;16.15;;;;;;;12.34;100.00;101981.69;5078402;28;20047;-84
2023/05/08 04:54:23;;;;;;;27.85;15.85;;;;;;;12.26;100.00;101991.09;5081313;28;20020;-84
2023/05/08 04:56:49;;;;;;;27.02;16.33;;;;;;;12.32;100.00;101990.47;5099920;28;20023;-84
2023/05/08 04:59:14;;;;;;;29.67;16.00;;;;;;;12.43;100.00;101990.72;5102952;28;20058;-84
2023/05/08 05:01:40;;;;;;;29.80;16.05;;;;;;;12.41;100.00;101999.50;5079477;28;20054;-84
2023/05/08 05:04:06;;;;;;;28.17;17.50;;;;;;;12.38;100.00;101994.63;5078107;28;20034;-84
2023/05/08 05:06:32;;;;;;;29.63;16.48;;;;;;;12.38;100.00;102000.25;5082198;28;20030;-84
2023/05/08 05:08:57;;;;;;;28.55;16.45;;;;;;;12.29;100.00;101998.78;5080963;28;20051;-83
2023/05/08 05:11:23;;;;;;;25.80;16.70;;;;;;;12.45;100.00;102012.84;5083469;28;20034;-84
2023/05/08 05:13:48;;;;;;;29.08;16.73;;;;;;;12.50;100.00;102009.75;5105425;28;20500;-84
2023/05/08 05:16:13;;;;;;;23.25;14.38;;;;;;;12.47;100.00;102018.91;5076001;28;20089;-83
2023/05/08 05:18:39;;;;;;;27.83;16.65;;;;;;;12.38;100.00;102003.06;5078104;28;20062;-83
2023/05/08 05:21:04;;;;;;;30.52;17.15;;;;;;;12.54;100.00;102014.28;5098387;28;20481;-84
2023/05/08 05:23:29;;;;;;;25.70;16.42;;;;;;;12.57;100.00;102012.75;5098428;28;20027;-84
2023/05/08 05:25:55;;;;;;;25.33;16.10;;;;;;;12.44;100.00;102011.19;5103516;28;20027;-84
2023/05/08 05:28:20;;;;;;;24.80;15.77;;;;;;;12.43;100.00;102010.38;5086143;28;20037;-84
2023/05/08 05:30:47;;;;;;;26.40;14.80;;;;;;;12.44;100.00;102011.19;5082055;28;20114;-84
2023/05/08 05:33:12;;;;;;;27.25;14.95;;;;;;;12.49;100.00;102010.94;5087827;28;20038;-84
2023/05/08 05:35:37;;;;;;;30.10;16.15;;;;;;;12.51;100.00;102014.19;5079104;28;20032;-84
2023/05/08 05:38:04;;;;;;;24.58;15.10;;;;;;;12.53;100.00;102017.47;5086689;28;20047;-83
2023/05/08 05:40:29;;;;;;;26.33;16.70;;;;;;;12.50;100.00;102019.00;5079637;28;20055;-84
2023/05/08 05:42:55;;;;;;;25.30;15.43;;;;;;;12.53;100.00;102017.47;5081556;28;20050;-84
2023/05/08 05:45:20;;;;;;;25.98;15.07;;;;;;;12.48;100.00;102031.75;5080099;28;20023;-84
2023/05/08 05:47:52;;;;;;;25.20;14.48;;;;;;;12.47;100.00;102032.94;5090683;28;20023;-84
2023/05/08 05:50:18;;;;;;;24.38;15.63;;;;;;;12.38;100.00;102028.31;5083042;28;20114;-83
2023/05/08 05:52:44;;;;;;;25.65;14.57;;;;;;;12.58;100.00;102032.00;5086170;28;20048;-85
2023/05/08 05:55:10;;;;;;;23.42;14.55;;;;;;;12.68;100.00;102036.28;5078974;28;20154;-84
2023/05/08 05:57:35;;;;;;;22.65;14.30;;;;;;;12.76;100.00;102032.47;5097805;28;20024;-84
2023/05/08 06:00:01;;;;;;;27.52;15.10;;;;;;;12.58;100.00;102034.03;5081972;28;20033;-84
2023/05/08 06:02:26;;;;;;;25.27;14.80;;;;;;;12.59;100.00;102039.28;5082776;28;20039;-85
2023/05/08 06:04:52;;;;;;;23.08;14.75;;;;;;;12.58;100.00;102042.44;5082957;28;20027;-84
2023/05/08 06:07:19;;;;;;;23.70;14.60;;;;;;;12.68;100.00;102041.91;5083731;28;20027;-85
2023/05/08 06:09:45;;;;;;;22.58;13.93;;;;;;;12.89;100.00;102052.03;5099323;28;20061;-84
2023/05/08 06:12:11;;;;;;;25.50;15.65;;;;;;;12.82;100.00;102047.88;5084389;28;20024;-85
2023/05/08 06:14:36;;;;;;;27.90;16.15;;;;;;;12.68;100.00;102049.50;5076282;28;20046;-85
2023/05/08 06:17:01;;;;;;;28.00;14.80;;;;;;;12.67;100.00;102029.03;5076883;28;20027;-84
2023/05/08 06:19:27;;;;;;;23.23;14.10;;;;;;;12.75;100.00;102053.28;5088135;28;20058;-85
2023/05/08 06:21:53;;;;;;;22.52;14.30;;;;;;;12.80;100.00;102044.59;5081509;28;20119;-84
2023/05/08 06:24:18;;;;;;;24.70;15.02;;;;;;;12.90;100.00;102042.41;5084191;28;20118;-85
2023/05/08 06:26:44;;;;;;;22.95;14.18;;;;;;;12.89;100.00;102040.78;5083626;28;20484;-85
2023/05/08 06:29:09;;;;;;;25.45;16.20;;;;;;;12.94;100.00;102032.88;5085735;28;20035;-83
2023/05/08 06:31:35;;;;;;;24.70;15.63;;;;;;;13.02;100.00;102040.28;5068902;28;20031;-84
2023/05/08 06:34:00;;;;;;;21.77;13.85;;;;;;;13.13;100.00;102042.53;5097367;28;20039;-85
2023/05/08 06:36:26;;;;;;;25.10;14.63;;;;;;;13.13;100.00;102036.91;5069335;28;21635;-84
2023/05/08 06:38:51;;;;;;;25.30;15.90;;;;;;;13.01;100.00;102021.00;5086264;28;20328;-83
2023/05/08 06:41:16;;;;;;;26.10;14.90;;;;;;;13.15;100.00;102043.78;5096496;28;20050;-84
2023/05/08 06:43:42;;;;;;;24.00;14.40;;;;;;;13.29;100.00;102042.53;5078229;28;20114;-84
2023/05/08 06:46:07;;;;;;;25.15;15.07;;;;;;;13.20;100.00;102051.94;5077572;28;20035;-84
2023/05/08 06:48:33;;;;;;;20.40;13.75;;;;;;;13.14;100.00;102030.91;5096982;28;20027;-77
2023/05/08 06:50:58;;;;;;;24.70;14.48;;;;;;;13.26;100.00;102043.22;5094174;27;20039;-77
2023/05/08 06:53:23;;;;;;;27.05;15.70;;;;;;;13.25;100.00;102045.22;5095390;28;20023;-77
2023/05/08 06:55:50;;;;;;;27.05;14.50;;;;;;;13.30;100.00;102039.34;5092024;27;20027;-77
2023/05/08 06:58:15;;;;;;;29.83;16.88;;;;;;;13.39;100.00;102044.75;5093880;28;20047;-77
2023/05/08 07:00:41;;;;;;;25.00;15.30;;;;;;;13.41;100.00;102043.19;5093358;28;20081;-78
2023/05/08 07:03:06;;;;;;;27.08;15.85;;;;;;;13.46;100.00;102038.47;5073170;28;20111;-78
2023/05/08 07:05:32;;;;;;;30.45;15.55;;;;;;;13.48;100.00;102045.34;5095539;28;20031;-78
2023/05/08 07:07:57;;;;;;;24.48;16.23;;;;;;;13.57;100.00;102037.47;5094327;28;20380;-78
2023/05/08 07:10:22;;;;;;;26.70;15.68;;;;;;;13.64;100.00;102039.66;5091943;28;20404;-78
2023/05/08 07:12:48;;;;;;;25.48;15.45;;;;;;;13.67;100.00;102026.84;5098569;28;20475;-77
2023/05/08 07:15:14;;;;;;;26.45;15.68;;;;;;;13.65;100.00;102032.03;5081308;28;20035;-78
2023/05/08 07:17:40;;;;;;;28.05;17.25;;;;;;;13.78;100.00;102030.66;5090527;28;20024;-78
2023/05/08 07:20:06;;;;;;;24.60;15.65;;;;;;;13.88;100.00;102032.88;5076833;28;20327;-78
2023/05/08 07:22:32;;;;;;;26.00;16.17;;;;;;;13.93;100.00;102043.00;5096720;28;20031;-78
2023/05/08 07:24:57;;;;;;;30.27;16.90;;;;;;;13.85;100.00;102028.00;5090025;28;20488;-78
2023/05/08 07:27:22;;;;;;;29.13;16.08;;;;;;;14.01;100.00;102039.16;5090642;28;20137;-78
2023/05/08 07:29:48;;;;;;;27.02;16.95;;;;;;;13.99;100.00;102035.91;5075508;28;20036;-77
2023/05/08 07:32:14;;;;;;;25.00;15.73;;;;;;;14.05;100.00;102037.22;5095700;28;20523;-77
2023/05/08 07:34:39;;;;;;;27.38;18.17;;;;;;;14.05;100.00;102033.59;5092326;28;20047;-78
2023/05/08 07:37:05;;;;;;;26.75;16.77;;;;;;;14.18;100.00;102032.22;5095163;28;20039;-77
2023/05/08 07:39:30;;;;;;;28.65;16.73;;;;;;;14.20;100.00;102035.47;5084638;28;20035;-77
2023/05/08 07:41:56;;;;;;;31.17;18.23;;;;;;;14.28;100.00;102036.44;5079325;28;20180;-77
2023/05/08 07:44:21;;;;;;;31.63;18.33;;;;;;;14.34;100.00;102035.72;5080271;28;20036;-77
2023/05/08 07:46:46;;;;;;;30.83;18.80;;;;;;;14.47;100.00;102035.53;5084693;28;20047;-77
2023/05/08 07:49:12;;;;;;;32.67;17.33;;;;;;;14.59;100.00;102041.00;5093737;28;20401;-77
2023/05/08 07:51:39;;;;;;;29.63;17.33;;;;;;;14.77;100.00;102030.00;5092261;28;20028;-78
2023/05/08 07:54:04;;;;;;;34.15;19.58;;;;;;;14.99;100.00;102043.25;5094230;28;20143;-77
2023/05/08 07:56:30;;;;;;;31.13;19.48;;;;;;;14.88;100.00;102041.44;5102662;28;20111;-77
2023/05/08 07:58:55;;;;;;;31.50;19.05;;;;;;;14.88;100.00;102041.44;5086923;28;20118;-77
2023/05/08 08:01:20;;;;;;;35.60;19.33;;;;;;;14.99;100.00;102048.88;5082368;27;21875;-77
2023/05/08 08:03:46;;;;;;;32.60;18.30;;;;;;;15.16;100.00;102047.53;5085165;28;20035;-77
2023/05/08 08:06:12;;;;;;;32.10;19.30;;;;;;;15.15;100.00;102050.72;5088162;28;20039;-77
2023/05/08 08:08:38;;;;;;;33.78;18.77;;;;;;;15.29;100.00;102053.75;5087566;28;20029;-77
2023/05/08 08:11:04;;;;;;;36.33;19.90;;;;;;;15.44;100.00;102054.75;5102279;27;20031;-77
2023/05/08 08:13:30;;;;;;;31.48;18.52;;;;;;;15.48;100.00;102052.78;5104450;27;20034;-77
2023/05/08 08:15:56;;;;;;;36.45;21.00;;;;;;;15.46;100.00;102055.16;5100425;28;20035;-77
2023/05/08 08:18:21;;;;;;;34.17;21.05;;;;;;;15.48;100.00;102047.13;5106124;27;20035;-77
2023/05/08 08:20:46;;;;;;;33.80;20.35;;;;;;;15.66;100.00;102053.00;5094953;28;20114;-76
2023/05/08 08:23:12;;;;;;;33.38;20.48;;;;;;;15.56;100.00;102056.53;5107779;27;20038;-77
2023/05/08 08:25:37;;;;;;;38.45;22.55;;;;;;;15.74;100.00;102048.28;5084441;27;20483;-77
2023/05/08 08:28:02;;;;;;;35.92;20.30;;;;;;;15.96;100.00;102044.50;5099057;27;20023;-77
2023/05/08 08:30:28;;;;;;;32.00;18.63;;;;;;;16.34;100.00;102042.47;5082237;27;20023;-78
2023/05/08 08:32:53;;;;;;;32.40;20.20;;;;;;;16.41;100.00;102036.88;5083298;27;20418;-77
2023/05/08 08:35:19;;;;;;;35.67;19.80;;;;;;;16.48;100.00;102038.13;5101679;27;20055;-77
2023/05/08 08:37:44;;;;;;;42.45;23.13;;;;;;;16.56;100.00;102039.81;5078972;28;20121;-78
2023/05/08 08:40:10;;;;;;;38.33;22.10;;;;;;;16.43;100.00;102034.47;5074263;28;20713;-77
2023/05/08 08:42:35;;;;;;;38.22;20.75;;;;;;;16.34;100.00;102028.34;5086886;28;20035;-77
2023/05/08 08:45:01;;;;;;;30.85;19.30;;;;;;;16.63;100.00;102018.09;5100187;27;20032;-77
2023/05/08 08:47:40;;;;;;;35.72;21.65;;;;;;;17.18;100.00;102022.91;5096745;28;20035;-77
2023/05/08 08:50:07;;;;;;;38.83;21.17;;;;;;;17.63;100.00;102019.88;5079033;28;20447;-78
2023/05/08 08:52:52;;;;;;;38.13;21.42;;;;;;;17.44;100.00;102009.69;5080185;28;20512;-78
2023/05/08 08:55:22;;;;;;;34.63;21.05;;;;;;;17.34;100.00;102001.97;5100730;28;20054;-78
2023/05/08 08:58:20;;;;;;;40.17;22.50;;;;;;;17.50;100.00;102008.09;5079871;28;20027;-78
2023/05/08 09:00:46;;;;;;;38.90;21.48;;;;;;;17.46;100.00;102004.44;5080117;28;20440;-77
2023/05/08 09:03:13;;;;;;;36.33;22.98;;;;;;;17.58;100.00;102001.25;5097583;27;20467;-78
2023/05/08 09:05:39;;;;;;;35.92;21.38;;;;;;;17.63;100.00;101997.22;5107800;27;20031;-78
2023/05/08 09:08:06;;;;;;;40.83;24.00;;;;;;;17.71;100.00;102004.53;5109110;27;20026;-78
2023/05/08 09:10:31;;;;;;;40.47;22.77;;;;;;;17.78;100.00;102000.91;5100244;27;20015;-78
2023/05/08 09:12:57;;;;;;;35.85;21.88;;;;;;;17.93;100.00;102001.78;5102024;27;20498;-78
2023/05/08 09:15:22;;;;;;;36.20;20.48;;;;;;;17.78;100.00;101998.88;5102792;27;20035;-78
2023/05/08 09:17:47;;;;;;;35.78;20.73;;;;;;;17.59;100.00;102002.06;5103856;27;20393;-78
2023/05/08 09:20:14;;;;;;;37.00;20.90;;;;;;;17.87;100.00;102009.84;5077158;28;20031;-78
2023/05/08 09:22:40;;;;;;;36.00;21.05;;;;;;;18.02;100.00;102002.97;5081878;28;20073;-78
2023/05/08 09:25:05;;;;;;;40.70;22.70;;;;;;;18.12;100.00;102004.22;5078675;28;20055;-78
2023/05/08 09:27:31;;;;;;;38.55;22.48;;;;;;;18.13;100.00;102007.84;5101052;28;20039;-78
2023/05/08 09:30:08;;;;;;;38.00;21.80;;;;;;;18.76;100.00;102011.91;5087164;28;20572;-78
2023/05/08 09:32:35;;;;;;;36.90;20.75;;;;;;;18.71;100.00;102003.81;5077537;28;20051;-78
2023/05/08 09:35:01;;;;;;;38.15;21.15;;;;;;;18.36;100.00;102005.47;5080618;28;20019;-79
2023/05/08 09:37:27;;;;;;;38.35;21.63;;;;;;;18.30;100.00;102001.41;5087463;28;20035;-79
2023/05/08 09:39:53;;;;;;;36.05;19.75;;;;;;;18.35;100.00;101998.16;5085326;28;20114;-79
2023/05/08 09:42:19;;;;;;;39.35;21.17;;;;;;;18.39;100.00;102004.66;5102231;28;20027;-79
2023/05/08 09:44:46;;;;;;;31.63;19.58;;;;;;;18.66;100.00;102009.91;5105027;28;20085;-79
2023/05/08 09:47:18;;;;;;;37.05;20.77;;;;;;;18.71;100.00;102006.66;5104477;28;20038;-79
2023/05/08 09:50:01;;;;;;;36.15;20.73;;;;;;;19.05;100.00;102006.22;5084338;28;20036;-79
2023/05/08 09:52:27;;;;;;;35.00;19.92;;;;;;;18.92;100.00;102002.19;5105753;28;20480;-79
2023/05/08 09:55:22;;;;;;;34.55;20.40;;;;;;;19.14;100.00;102006.56;5098456;28;20038;-78
2023/05/08 09:57:58;;;;;;;31.50;19.27;;;;;;;19.26;100.00;102003.28;5070587;28;20054;-79
2023/05/08 10:00:25;;;;;;;36.85;21.27;;;;;;;18.89;100.00;101998.16;5080077;28;20529;-79
2023/05/08 10:02:59;;;;;;;33.30;19.83;;;;;;;19.20;100.00;102007.78;5104414;28;20023;-78
2023/05/08 10:05:30;;;;;;;32.95;20.17;;;;;;;19.39;100.00;102002.84;5086096;28;20489;-78
2023/05/08 10:08:21;;;;;;;30.40;19.17;;;;;;;19.52;100.00;101998.31;5080205;28;20460;-79
2023/05/08 10:10:46;;;;;;;33.65;19.55;;;;;;;19.51;100.00;101999.53;5101528;28;20019;-79
2023/05/08 10:13:12;;;;;;;28.77;17.75;;;;;;;19.84;100.00;101997.38;5104233;28;20315;-79
2023/05/08 10:15:41;;;;;;;35.58;19.80;;;;;;;20.37;97.49;102006.75;5079005;28;20046;-78
2023/05/08 10:18:13;;;;;;;30.92;18.85;;;;;;;20.19;97.37;101996.31;5098836;28;20039;-78
2023/05/08 10:20:40;;;;;;;30.15;18.08;;;;;;;20.41;94.41;101999.00;5102724;28;20019;-79
2023/05/08 10:23:14;;;;;;;29.58;16.65;;;;;;;20.20;94.96;102003.63;5100558;28;20027;-78
2023/05/08 10:25:44;;;;;;;29.95;17.90;;;;;;;20.40;95.57;102006.69;5086818;28;20073;-78
2023/05/08 10:28:30;;;;;;;29.58;17.60;;;;;;;20.52;94.95;102006.19;5089956;28;20032;-78
2023/05/08 10:30:59;;;;;;;29.83;19.08;;;;;;;20.63;92.97;102008.16;5101213;28;20036;-78
2023/05/08 10:33:30;;;;;;;31.00;19.17;;;;;;;20.99;92.38;102005.75;5104103;28;20026;-78
2023/05/08 10:35:55;;;;;;;31.80;18.08;;;;;;;20.85;92.15;102006.72;5097464;27;20516;-85
2023/05/08 10:38:22;;;;;;;31.45;18.92;;;;;;;21.00;92.78;101995.19;5101511;27;20039;-85
2023/05/08 10:40:49;;;;;;;29.20;19.42;;;;;;;21.02;91.19;101998.41;5094908;27;20019;-84
2023/05/08 10:43:15;;;;;;;34.35;18.75;;;;;;;21.14;91.29;101991.38;5087298;28;20380;-84
2023/05/08 10:45:40;;;;;;;29.27;18.55;;;;;;;21.12;90.54;101986.09;5105297;27;20038;-84
2023/05/08 10:48:31;;;;;;;29.52;19.02;;;;;;;21.21;91.80;101989.25;5101342;27;20028;-84
2023/05/08 10:51:05;;;;;;;37.45;19.33;;;;;;;21.11;91.92;101984.50;5099577;28;20177;-84
2023/05/08 10:53:55;;;;;;;31.38;18.75;;;;;;;21.28;92.17;101980.59;5090039;28;20032;-84
2023/05/08 10:56:27;;;;;;;31.25;17.90;;;;;;;21.43;91.05;101989.81;5083949;28;20100;-84
2023/05/08 10:58:57;;;;;;;25.60;15.18;;;;;;;20.77;91.52;101984.47;5090373;28;20042;-83
2023/05/08 11:01:26;;;;;;;28.50;18.63;;;;;;;21.17;92.64;101987.69;5087751;27;20051;-84
2023/05/08 11:03:54;;;;;;;34.45;20.17;;;;;;;21.31;91.12;101993.19;5107109;27;20027;-83
2023/05/08 11:06:57;;;;;;;30.48;18.30;;;;;;;21.20;92.50;101986.81;5086170;28;20062;-84
2023/05/08 11:09:28;;;;;;;34.58;20.42;;;;;;;21.05;93.30;101975.59;5046391;28;20545;-84
2023/05/08 11:12:07;;;;;;;35.28;20.33;;;;;;;21.13;93.76;101976.34;5083275;28;20043;-85